Time;durP1;ratioP1;P1;durP2;ratioP2;P2;SDS_P1;SDS_P2;PMS_P1;PMS_P2;Temp;Humidity;BMP_temperature;BMP_pressure;BME280_temperature;BME280_humidity;BME280_pressure;Samples;Min_cycle;Max_cycle;Signal;HPM_P1;HPM_P2
2022/05/01 00:01:41;;;;;;;16.85;11.35;;;;;;;;;;5054804;28;20555;-26
2022/05/01 00:04:07;;;;;;;13.95;10.55;;;;;;;;;;5054690;28;20256;-27
2022/05/01 00:06:33;;;;;;;15.40;11.80;;;;;;;;;;5036104;28;20040;-26
2022/05/01 00:09:00;;;;;;;14.48;11.07;;;;;;;;;;5054043;28;20041;-26
2022/05/01 00:11:26;;;;;;;12.73;10.88;;;;;;;;;;5053983;28;20045;-27
2022/05/01 00:13:53;;;;;;;14.93;11.60;;;;;;;;;;5054079;28;20040;-26
2022/05/01 00:16:19;;;;;;;13.93;11.60;;;;;;;;;;5054664;28;20033;-26
2022/05/01 00:18:45;;;;;;;12.57;11.27;;;;;;;;;;5054786;28;20426;-26
2022/05/01 00:21:11;;;;;;;13.88;11.80;;;;;;;;;;5036652;28;20090;-27
2022/05/01 00:23:38;;;;;;;13.65;12.13;;;;;;;;;;5054305;28;20037;-27
2022/05/01 00:26:05;;;;;;;14.20;11.65;;;;;;;;;;5054271;28;20122;-26
2022/05/01 00:28:36;;;;;;;13.00;11.07;;;;;;;;;;5054060;28;20041;-27
2022/05/01 00:31:04;;;;;;;14.75;10.60;;;;;;;;;;5053250;28;20124;-26
2022/05/01 00:36:27;;;;;;;13.30;11.20;;;;;;;;;;5053805;28;20107;-25
2022/05/01 00:39:07;;;;;;;13.52;10.90;;;;;;;;;;5053640;28;20036;-27
2022/05/01 00:41:34;;;;;;;13.40;10.90;;;;;;;;;;5054130;28;20441;-26
2022/05/01 00:44:06;;;;;;;15.45;10.82;;;;;;;;;;5053920;28;20041;-27
2022/05/01 00:46:37;;;;;;;12.88;10.70;;;;;;;;;;5053818;28;20502;-26
2022/05/01 00:49:04;;;;;;;13.75;11.48;;;;;;;;;;5053525;28;20037;-27
2022/05/01 00:51:30;;;;;;;13.75;10.98;;;;;;;;;;5035465;28;20055;-26
2022/05/01 00:53:57;;;;;;;14.68;11.25;;;;;;;;;;5053797;28;20319;-27
2022/05/01 00:56:24;;;;;;;13.93;10.80;;;;;;;;;;5053050;28;20517;-27
2022/05/01 00:58:51;;;;;;;14.57;12.30;;;;;;;;;;5054141;28;20120;-26
2022/05/01 01:01:18;;;;;;;17.58;11.65;;;;;;;;;;5053504;28;20036;-27
2022/05/01 01:03:44;;;;;;;14.90;12.02;;;;;;;;;;5053085;28;20375;-27
2022/05/01 01:06:11;;;;;;;14.05;11.00;;;;;;;;;;5052773;28;20070;-26
2022/05/01 01:08:37;;;;;;;13.43;11.20;;;;;;;;;;5053299;28;20130;-27
2022/05/01 01:11:03;;;;;;;13.65;11.68;;;;;;;;;;5035151;28;20041;-27
2022/05/01 01:13:30;;;;;;;15.85;11.75;;;;;;;;;;5035266;28;20049;-26
2022/05/01 01:15:57;;;;;;;15.80;12.32;;;;;;;;;;5052928;28;20033;-26
2022/05/01 01:18:23;;;;;;;14.63;12.27;;;;;;;;;;5052898;28;20120;-26
2022/05/01 01:20:51;;;;;;;15.18;11.85;;;;;;;;;;5052817;28;20052;-26
2022/05/01 01:23:18;;;;;;;16.95;13.25;;;;;;;;;;5052128;28;20048;-26
2022/05/01 01:25:44;;;;;;;15.23;11.48;;;;;;;;;;5052193;28;20128;-26
2022/05/01 01:28:11;;;;;;;13.07;11.63;;;;;;;;;;5053133;28;20553;-26
2022/05/01 01:33:22;;;;;;;15.93;12.60;;;;;;;;;;5052980;28;20041;-26
2022/05/01 01:35:49;;;;;;;16.48;12.10;;;;;;;;;;5052682;28;20044;-27
2022/05/01 01:38:16;;;;;;;15.00;12.02;;;;;;;;;;5051800;28;20064;-25
2022/05/01 01:40:42;;;;;;;16.40;12.70;;;;;;;;;;5052976;28;20103;-26
2022/05/01 01:43:10;;;;;;;15.57;12.10;;;;;;;;;;5052718;28;20068;-27
2022/05/01 01:45:36;;;;;;;15.63;12.40;;;;;;;;;;5052426;28;20052;-28
2022/05/01 01:48:08;;;;;;;15.48;12.65;;;;;;;;;;5052362;28;20077;-27
2022/05/01 01:50:35;;;;;;;16.42;12.48;;;;;;;;;;5051560;28;20044;-27
2022/05/01 01:53:01;;;;;;;13.82;11.35;;;;;;;;;;5052595;28;20387;-26
2022/05/01 01:55:27;;;;;;;14.65;12.30;;;;;;;;;;5061590;28;20032;-29
2022/05/01 01:57:53;;;;;;;15.82;13.18;;;;;;;;;;5063374;28;20398;-29
2022/05/01 02:00:19;;;;;;;17.63;13.63;;;;;;;;;;5071089;28;20383;-29
2022/05/01 02:02:45;;;;;;;16.25;13.05;;;;;;;;;;5070825;28;20045;-30
2022/05/01 02:05:11;;;;;;;20.20;13.20;;;;;;;;;;5071599;28;20161;-29
2022/05/01 02:07:37;;;;;;;16.38;12.73;;;;;;;;;;5071293;28;20102;-29
2022/05/01 02:10:04;;;;;;;16.30;13.40;;;;;;;;;;5071044;28;20051;-29
2022/05/01 02:12:30;;;;;;;16.20;13.23;;;;;;;;;;5068580;28;20058;-29
2022/05/01 02:14:56;;;;;;;18.45;14.43;;;;;;;;;;5070009;28;20145;-30
2022/05/01 02:17:22;;;;;;;19.92;14.13;;;;;;;;;;5071469;28;20398;-30
2022/05/01 02:19:48;;;;;;;18.10;13.52;;;;;;;;;;5052094;28;20033;-28
2022/05/01 02:22:15;;;;;;;17.92;13.88;;;;;;;;;;5069337;28;20036;-30
2022/05/01 02:24:41;;;;;;;16.10;13.27;;;;;;;;;;5072015;28;20040;-28
2022/05/01 02:27:08;;;;;;;18.45;12.98;;;;;;;;;;5070536;28;20429;-30
2022/05/01 02:29:34;;;;;;;19.00;14.43;;;;;;;;;;5070083;28;20041;-32
2022/05/01 02:32:00;;;;;;;19.05;13.45;;;;;;;;;;5070216;28;20048;-29
2022/05/01 02:34:26;;;;;;;17.23;13.35;;;;;;;;;;5070756;28;20046;-30
2022/05/01 02:36:52;;;;;;;15.52;13.50;;;;;;;;;;5068409;28;20032;-32
2022/05/01 02:39:19;;;;;;;16.83;13.93;;;;;;;;;;5063491;28;20127;-29
2022/05/01 02:41:45;;;;;;;18.40;13.45;;;;;;;;;;5068773;28;20047;-29
2022/05/01 02:44:11;;;;;;;17.73;13.32;;;;;;;;;;5070721;28;20056;-30
2022/05/01 02:46:38;;;;;;;19.58;14.43;;;;;;;;;;5070151;28;20546;-30
2022/05/01 02:49:08;;;;;;;21.05;15.85;;;;;;;;;;5070358;28;20624;-29
2022/05/01 02:51:36;;;;;;;21.10;14.85;;;;;;;;;;5069720;28;20041;-29
2022/05/01 02:54:04;;;;;;;19.13;14.60;;;;;;;;;;5070667;28;20048;-28
2022/05/01 02:56:30;;;;;;;21.38;14.35;;;;;;;;;;5069961;28;20107;-29
2022/05/01 02:58:57;;;;;;;15.88;13.95;;;;;;;;;;5070427;28;20033;-30
2022/05/01 03:01:23;;;;;;;19.08;14.18;;;;;;;;;;5070450;28;20385;-31
2022/05/01 03:03:49;;;;;;;18.38;13.63;;;;;;;;;;5070661;28;20040;-31
2022/05/01 03:06:15;;;;;;;18.27;14.52;;;;;;;;;;5070920;28;20106;-31
2022/05/01 03:08:41;;;;;;;18.02;13.95;;;;;;;;;;5052392;28;20037;-33
2022/05/01 03:11:08;;;;;;;16.23;13.23;;;;;;;;;;5070502;28;20067;-28
2022/05/01 03:13:34;;;;;;;18.27;13.82;;;;;;;;;;5070653;28;20111;-29
2022/05/01 03:16:00;;;;;;;21.45;15.35;;;;;;;;;;5070348;28;20067;-29
2022/05/01 03:23:56;;;;;;;18.08;14.00;;;;;;;;;;5070368;28;20401;-29
2022/05/01 03:26:22;;;;;;;16.88;13.48;;;;;;;;;;5069785;28;20087;-30
2022/05/01 03:28:48;;;;;;;22.15;15.43;;;;;;;;;;5070453;28;20041;-29
2022/05/01 03:31:15;;;;;;;18.45;15.07;;;;;;;;;;5069600;28;20095;-30
2022/05/01 03:33:42;;;;;;;20.20;15.73;;;;;;;;;;5070132;28;20112;-29
2022/05/01 03:36:09;;;;;;;20.35;14.88;;;;;;;;;;5070117;28;20075;-29
2022/05/01 03:38:36;;;;;;;19.50;14.48;;;;;;;;;;5069971;28;20037;-30
2022/05/01 03:41:04;;;;;;;18.10;14.43;;;;;;;;;;5070175;28;20045;-28
2022/05/01 03:43:31;;;;;;;16.27;14.05;;;;;;;;;;5071052;28;20469;-28
2022/05/01 03:45:57;;;;;;;18.30;14.15;;;;;;;;;;5070388;28;20685;-29
2022/05/01 03:48:24;;;;;;;16.65;14.13;;;;;;;;;;5069885;28;20045;-31
2022/05/01 03:50:54;;;;;;;19.65;15.75;;;;;;;;;;5069821;28;20529;-30
2022/05/01 03:53:20;;;;;;;19.05;14.82;;;;;;;;;;5069896;28;20380;-29
2022/05/01 03:55:46;;;;;;;19.35;14.50;;;;;;;;;;5069793;28;20440;-28
2022/05/01 03:58:13;;;;;;;17.33;14.00;;;;;;;;;;5070021;28;20036;-30
2022/05/01 04:00:39;;;;;;;16.27;13.05;;;;;;;;;;5069942;28;20052;-29
2022/05/01 04:03:05;;;;;;;18.33;14.68;;;;;;;;;;5072761;28;20048;-29
2022/05/01 04:05:33;;;;;;;21.40;15.43;;;;;;;;;;5073463;28;20076;-29
2022/05/01 04:07:59;;;;;;;20.95;16.23;;;;;;;;;;5073852;28;20037;-29
2022/05/01 04:10:25;;;;;;;18.13;14.65;;;;;;;;;;5074029;28;20087;-31
2022/05/01 04:12:52;;;;;;;20.80;15.32;;;;;;;;;;5073228;28;20604;-31
2022/05/01 04:15:18;;;;;;;20.58;15.35;;;;;;;;;;5073635;28;20127;-29
2022/05/01 04:17:44;;;;;;;20.13;14.90;;;;;;;;;;5073582;28;20041;-29
2022/05/01 04:20:12;;;;;;;16.58;14.00;;;;;;;;;;5073727;28;20294;-30
2022/05/01 04:22:39;;;;;;;18.35;14.70;;;;;;;;;;5072390;28;20074;-28
2022/05/01 04:25:06;;;;;;;19.50;14.43;;;;;;;;;;5073721;28;20402;-29
2022/05/01 04:27:32;;;;;;;18.98;15.25;;;;;;;;;;5072563;28;20110;-29
2022/05/01 04:29:59;;;;;;;22.55;14.43;;;;;;;;;;5073049;28;20052;-29
2022/05/01 04:32:25;;;;;;;18.70;14.82;;;;;;;;;;5072982;28;20470;-29
2022/05/01 04:34:51;;;;;;;21.60;15.40;;;;;;;;;;5073472;28;20379;-31
2022/05/01 04:37:17;;;;;;;22.52;15.10;;;;;;;;;;5072926;28;20036;-29
2022/05/01 04:39:43;;;;;;;19.63;15.05;;;;;;;;;;5072835;28;20033;-29
2022/05/01 04:42:09;;;;;;;19.60;15.27;;;;;;;;;;5072542;28;20478;-30
2022/05/01 04:44:35;;;;;;;21.15;15.50;;;;;;;;;;5072820;28;20032;-29
2022/05/01 04:47:02;;;;;;;20.15;15.75;;;;;;;;;;5072633;28;20131;-30
2022/05/01 04:49:29;;;;;;;20.58;16.08;;;;;;;;;;5073072;28;20040;-29
2022/05/01 04:51:55;;;;;;;23.92;16.73;;;;;;;;;;5072133;28;20044;-30
2022/05/01 04:54:21;;;;;;;20.27;16.52;;;;;;;;;;5072613;28;20033;-29
2022/05/01 04:57:06;;;;;;;21.55;16.15;;;;;;;;;;5072775;28;20049;-29
2022/05/01 04:59:32;;;;;;;20.60;16.67;;;;;;;;;;5072970;28;20028;-29
2022/05/01 05:01:58;;;;;;;21.95;16.55;;;;;;;;;;5071968;28;20040;-31
2022/05/01 05:04:24;;;;;;;23.88;17.23;;;;;;;;;;5054525;28;20055;-29
2022/05/01 05:06:52;;;;;;;22.40;17.02;;;;;;;;;;5073048;28;20043;-30
2022/05/01 05:12:05;;;;;;;23.92;18.70;;;;;;;;;;5072015;28;20203;-30
2022/05/01 05:14:31;;;;;;;23.20;17.83;;;;;;;;;;5072112;28;20033;-29
2022/05/01 05:16:58;;;;;;;22.88;17.67;;;;;;;;;;5072257;28;20044;-29
2022/05/01 05:19:24;;;;;;;20.67;17.30;;;;;;;;;;5072443;28;20036;-30
2022/05/01 05:21:50;;;;;;;23.05;17.83;;;;;;;;;;5072270;28;20510;-31
2022/05/01 05:24:16;;;;;;;22.73;18.13;;;;;;;;;;5071820;28;20478;-29
2022/05/01 05:26:42;;;;;;;23.15;17.83;;;;;;;;;;5072170;28;20037;-28
2022/05/01 05:29:08;;;;;;;24.23;18.25;;;;;;;;;;5072085;28;20058;-28
2022/05/01 05:31:35;;;;;;;26.65;18.65;;;;;;;;;;5072007;28;20044;-29
2022/05/01 05:34:01;;;;;;;23.65;17.80;;;;;;;;;;5072431;28;20044;-29
2022/05/01 05:36:27;;;;;;;21.42;17.50;;;;;;;;;;5071205;28;20459;-29
2022/05/01 05:38:53;;;;;;;23.23;16.58;;;;;;;;;;5070525;28;20387;-29
2022/05/01 05:41:19;;;;;;;21.27;17.90;;;;;;;;;;5071137;28;20457;-30
2022/05/01 05:43:45;;;;;;;23.27;18.70;;;;;;;;;;5071461;28;20036;-30
2022/05/01 05:46:12;;;;;;;24.23;18.75;;;;;;;;;;5071556;28;20173;-30
2022/05/01 05:48:38;;;;;;;22.45;16.98;;;;;;;;;;5037011;28;20036;-30
2022/05/01 05:51:05;;;;;;;20.95;17.52;;;;;;;;;;5071212;28;20052;-28
2022/05/01 05:53:31;;;;;;;22.02;16.92;;;;;;;;;;5071032;28;20036;-29
2022/05/01 05:55:57;;;;;;;23.52;19.02;;;;;;;;;;5071308;28;20032;-28
2022/05/01 05:58:23;;;;;;;22.92;17.08;;;;;;;;;;5071087;28;20055;-30
2022/05/01 06:00:49;;;;;;;23.98;17.85;;;;;;;;;;5071102;28;20036;-29
2022/05/01 06:03:15;;;;;;;22.90;18.02;;;;;;;;;;5071461;28;20055;-29
2022/05/01 06:05:41;;;;;;;22.08;17.90;;;;;;;;;;5065336;28;20172;-29
2022/05/01 06:08:09;;;;;;;22.50;17.88;;;;;;;;;;5062534;28;20337;-33
2022/05/01 06:10:35;;;;;;;20.85;16.70;;;;;;;;;;5071968;28;20047;-29
2022/05/01 06:13:01;;;;;;;23.27;17.80;;;;;;;;;;5057139;28;20049;-30
2022/05/01 06:15:27;;;;;;;20.77;16.50;;;;;;;;;;5060594;28;20548;-30
2022/05/01 06:17:53;;;;;;;19.10;15.95;;;;;;;;;;5061763;28;20490;-28
2022/05/01 06:20:20;;;;;;;19.88;15.88;;;;;;;;;;5059929;28;20437;-30
2022/05/01 06:22:50;;;;;;;17.15;14.90;;;;;;;;;;5057026;28;20049;-30
2022/05/01 06:25:16;;;;;;;22.42;16.00;;;;;;;;;;5058672;28;20113;-28
2022/05/01 06:27:42;;;;;;;20.48;15.70;;;;;;;;;;5056939;28;20040;-28
2022/05/01 06:30:12;;;;;;;19.45;16.52;;;;;;;;;;5059129;28;20040;-27
2022/05/01 06:32:41;;;;;;;17.80;14.98;;;;;;;;;;5057726;28;20033;-30
2022/05/01 06:35:07;;;;;;;19.88;15.07;;;;;;;;;;5061488;28;20044;-29
2022/05/01 06:37:37;;;;;;;18.70;15.43;;;;;;;;;;5055496;28;20036;-29
2022/05/01 06:40:04;;;;;;;16.75;13.77;;;;;;;;;;5050214;28;20040;-31
2022/05/01 06:42:31;;;;;;;17.05;14.60;;;;;;;;;;5050498;28;20045;-29
2022/05/01 06:44:57;;;;;;;16.67;14.75;;;;;;;;;;5069369;28;20036;-28
2022/05/01 06:47:23;;;;;;;16.90;14.88;;;;;;;;;;5069854;28;20055;-30
2022/05/01 06:49:49;;;;;;;18.50;14.45;;;;;;;;;;5069468;28;20047;-28
2022/05/01 06:52:23;;;;;;;18.58;15.23;;;;;;;;;;5070798;28;20098;-28
2022/05/01 06:54:55;;;;;;;16.52;14.02;;;;;;;;;;5051496;28;20047;-28
2022/05/01 06:57:22;;;;;;;18.17;14.43;;;;;;;;;;5063060;28;20079;-28
2022/05/01 06:59:48;;;;;;;19.55;14.75;;;;;;;;;;5058071;28;20036;-30
2022/05/01 07:02:14;;;;;;;18.15;14.80;;;;;;;;;;5059546;28;20052;-30
2022/05/01 07:04:40;;;;;;;17.55;14.90;;;;;;;;;;5057190;28;20064;-29
2022/05/01 07:07:06;;;;;;;16.38;14.27;;;;;;;;;;5057004;28;20040;-28
2022/05/01 07:09:33;;;;;;;18.40;15.75;;;;;;;;;;5070507;28;20036;-27
2022/05/01 07:11:59;;;;;;;19.00;14.60;;;;;;;;;;5067179;28;20040;-27
2022/05/01 07:14:25;;;;;;;17.25;14.02;;;;;;;;;;5034339;28;20041;-28
2022/05/01 07:16:51;;;;;;;17.20;13.50;;;;;;;;;;5070531;28;20036;-29
2022/05/01 07:19:18;;;;;;;17.75;13.00;;;;;;;;;;5070144;28;20082;-29
2022/05/01 07:21:44;;;;;;;14.25;11.88;;;;;;;;;;5056836;28;20037;-27
2022/05/01 07:24:10;;;;;;;18.10;14.35;;;;;;;;;;5069129;28;20123;-30
2022/05/01 07:26:37;;;;;;;18.00;13.43;;;;;;;;;;5070450;28;20401;-28
2022/05/01 07:29:04;;;;;;;15.63;12.20;;;;;;;;;;5069794;28;20040;-29
2022/05/01 07:31:31;;;;;;;15.32;13.15;;;;;;;;;;5068860;28;20466;-27
2022/05/01 07:33:57;;;;;;;14.70;12.60;;;;;;;;;;5069607;28;20094;-33
2022/05/01 07:36:23;;;;;;;16.20;14.50;;;;;;;;;;5068476;28;20044;-29
2022/05/01 07:38:50;;;;;;;15.27;13.00;;;;;;;;;;5072759;28;20119;-27
2022/05/01 07:41:17;;;;;;;16.20;13.07;;;;;;;;;;5073229;28;20487;-26
2022/05/01 07:43:43;;;;;;;13.02;11.65;;;;;;;;;;5073796;28;20379;-26
2022/05/01 07:46:09;;;;;;;14.32;12.50;;;;;;;;;;5071960;28;20123;-26
2022/05/01 07:48:35;;;;;;;16.88;13.82;;;;;;;;;;5054905;28;20041;-28
2022/05/01 07:51:02;;;;;;;16.25;13.25;;;;;;;;;;5063841;28;20040;-26
2022/05/01 07:53:28;;;;;;;15.07;12.48;;;;;;;;;;5074906;28;20480;-27
2022/05/01 07:55:56;;;;;;;15.75;12.95;;;;;;;;;;5074453;28;20394;-26
2022/05/01 07:58:22;;;;;;;18.40;13.63;;;;;;;;;;5074431;28;20044;-27
2022/05/01 08:00:48;;;;;;;16.35;12.30;;;;;;;;;;5074601;28;20059;-26
2022/05/01 08:05:59;;;;;;;17.38;13.70;;;;;;;;;;5072617;28;20048;-26
2022/05/01 08:08:25;;;;;;;14.52;13.02;;;;;;;;;;5074311;28;20506;-26
2022/05/01 08:10:52;;;;;;;15.43;12.63;;;;;;;;;;5074363;28;20109;-27
2022/05/01 08:13:18;;;;;;;14.85;11.65;;;;;;;;;;5074144;28;20037;-27
2022/05/01 08:15:44;;;;;;;15.45;12.35;;;;;;;;;;5074401;28;20064;-25
2022/05/01 08:21:08;;;;;;;12.02;10.68;;;;;;;;;;5074189;28;20125;-26
2022/05/01 08:23:34;;;;;;;14.40;10.82;;;;;;;;;;5072338;28;20525;-29
2022/05/01 08:26:04;;;;;;;12.73;11.13;;;;;;;;;;5072259;28;20139;-30
2022/05/01 08:28:39;;;;;;;12.93;10.88;;;;;;;;;;5073295;28;20036;-31
2022/05/01 08:31:06;;;;;;;11.80;10.60;;;;;;;;;;5071873;28;20036;-29
2022/05/01 08:33:32;;;;;;;13.32;11.18;;;;;;;;;;5073290;28;20082;-29
2022/05/01 08:35:58;;;;;;;14.40;11.75;;;;;;;;;;5071817;28;20036;-31
2022/05/01 08:38:24;;;;;;;14.45;11.95;;;;;;;;;;5073253;28;20032;-29
2022/05/01 08:40:51;;;;;;;12.48;10.85;;;;;;;;;;5073206;28;20456;-30
2022/05/01 08:43:18;;;;;;;12.18;10.90;;;;;;;;;;5067352;28;20473;-31
2022/05/01 08:45:53;;;;;;;11.23;10.13;;;;;;;;;;5072149;28;20033;-31
2022/05/01 08:48:40;;;;;;;12.15;10.95;;;;;;;;;;5066522;28;20076;-30
2022/05/01 08:51:06;;;;;;;12.43;11.13;;;;;;;;;;5072485;28;20036;-30
2022/05/01 08:53:32;;;;;;;12.43;10.43;;;;;;;;;;5072901;28;20402;-30
2022/05/01 08:55:59;;;;;;;12.18;10.32;;;;;;;;;;5072332;28;20051;-30
2022/05/01 08:58:26;;;;;;;14.07;9.98;;;;;;;;;;5073120;28;20052;-30
2022/05/01 09:00:53;;;;;;;11.57;10.38;;;;;;;;;;5072669;28;20067;-31
2022/05/01 09:03:19;;;;;;;11.45;10.25;;;;;;;;;;5073358;28;20129;-29
2022/05/01 09:05:45;;;;;;;11.15;10.02;;;;;;;;;;5073236;28;20119;-30
2022/05/01 09:08:12;;;;;;;9.80;8.82;;;;;;;;;;5072988;28;20605;-30
2022/05/01 09:10:41;;;;;;;10.70;9.63;;;;;;;;;;5072450;28;20052;-30
2022/05/01 09:13:08;;;;;;;10.98;9.77;;;;;;;;;;5071980;28;20037;-29
2022/05/01 09:15:40;;;;;;;10.80;9.43;;;;;;;;;;5071725;28;20039;-30
2022/05/01 09:18:10;;;;;;;11.18;8.63;;;;;;;;;;5063139;28;20107;-32
2022/05/01 09:20:38;;;;;;;12.65;9.80;;;;;;;;;;5052754;28;20049;-30
2022/05/01 09:23:05;;;;;;;11.80;9.50;;;;;;;;;;5068750;28;20105;-30
2022/05/01 09:25:32;;;;;;;10.00;9.00;;;;;;;;;;5061846;28;20088;-31
2022/05/01 09:28:02;;;;;;;10.90;9.77;;;;;;;;;;5061373;28;20045;-30
2022/05/01 09:30:31;;;;;;;10.50;9.38;;;;;;;;;;5066728;28;20089;-31
2022/05/01 09:32:58;;;;;;;10.02;8.75;;;;;;;;;;5072319;28;20522;-29
2022/05/01 09:35:29;;;;;;;9.75;8.75;;;;;;;;;;5066167;28;20033;-29
2022/05/01 09:38:14;;;;;;;9.70;8.52;;;;;;;;;;5065406;28;20037;-29
2022/05/01 09:40:41;;;;;;;9.30;8.23;;;;;;;;;;5060748;28;20107;-31
2022/05/01 09:43:07;;;;;;;8.60;7.72;;;;;;;;;;5059164;28;20458;-30
2022/05/01 09:45:34;;;;;;;9.18;8.27;;;;;;;;;;5057104;28;20071;-30
2022/05/01 09:48:00;;;;;;;9.45;8.30;;;;;;;;;;5058969;28;20048;-29
2022/05/01 09:50:40;;;;;;;9.68;8.68;;;;;;;;;;5062544;28;20036;-30
2022/05/01 09:53:06;;;;;;;11.45;9.02;;;;;;;;;;5061149;28;20041;-29
2022/05/01 09:55:32;;;;;;;11.30;9.32;;;;;;;;;;5056769;28;20033;-31
2022/05/01 09:58:17;;;;;;;11.18;9.23;;;;;;;;;;5042318;28;20132;-30
2022/05/01 10:00:46;;;;;;;12.43;8.43;;;;;;;;;;5053115;28;20069;-31
2022/05/01 10:03:20;;;;;;;8.98;8.05;;;;;;;;;;5060557;28;20048;-30
2022/05/01 10:05:47;;;;;;;8.93;8.05;;;;;;;;;;5059385;28;20041;-30
2022/05/01 10:08:13;;;;;;;9.32;8.35;;;;;;;;;;5064520;28;20115;-31
2022/05/01 10:10:42;;;;;;;10.43;8.25;;;;;;;;;;5062533;28;20118;-30
2022/05/01 10:13:10;;;;;;;11.15;7.72;;;;;;;;;;5063140;28;20044;-30
2022/05/01 10:15:36;;;;;;;9.30;8.40;;;;;;;;;;5065827;28;20080;-31
2022/05/01 10:18:03;;;;;;;11.40;7.75;;;;;;;;;;5069778;28;20040;-30
2022/05/01 10:20:29;;;;;;;8.65;7.57;;;;;;;;;;5069700;28;20033;-30
2022/05/01 10:22:58;;;;;;;9.30;7.45;;;;;;;;;;5068042;28;20120;-29
2022/05/01 10:25:24;;;;;;;8.23;7.43;;;;;;;;;;5069647;28;20067;-31
2022/05/01 10:27:54;;;;;;;9.48;7.60;;;;;;;;;;5069810;28;20090;-30
2022/05/01 10:33:24;;;;;;;7.68;6.82;;;;;;;;;;5057220;28;20495;-31
2022/05/01 10:36:03;;;;;;;6.38;5.78;;;;;;;;;;5058694;28;20033;-32
2022/05/01 10:38:51;;;;;;;6.63;5.75;;;;;;;;;;5065452;28;20402;-34
2022/05/01 10:41:18;;;;;;;7.40;6.60;;;;;;;;;;5066355;28;20234;-31
2022/05/01 10:43:55;;;;;;;6.80;6.10;;;;;;;;;;5059017;28;20044;-32
2022/05/01 10:46:21;;;;;;;6.72;6.13;;;;;;;;;;5067313;28;20044;-33
2022/05/01 10:48:48;;;;;;;5.97;5.35;;;;;;;;;;5065842;28;20045;-31
2022/05/01 10:51:30;;;;;;;5.47;4.97;;;;;;;;;;5071407;28;20090;-32
2022/05/01 10:54:11;;;;;;;5.90;5.38;;;;;;;;;;5071065;28;20090;-31
2022/05/01 10:56:38;;;;;;;11.45;4.80;;;;;;;;;;5035986;28;20424;-30
2022/05/01 10:59:34;;;;;;;5.75;5.05;;;;;;;;;;5070433;28;20098;-31
2022/05/01 11:02:00;;;;;;;4.65;4.25;;;;;;;;;;5060295;28;20052;-30
2022/05/01 11:04:32;;;;;;;5.32;4.45;;;;;;;;;;5069380;28;20080;-31
2022/05/01 11:06:59;;;;;;;3.75;3.42;;;;;;;;;;5070678;28;20056;-32
2022/05/01 11:09:26;;;;;;;4.40;3.70;;;;;;;;;;5065275;28;20036;-33
2022/05/01 11:11:59;;;;;;;5.22;3.85;;;;;;;;;;5068121;28;20040;-31
2022/05/01 11:14:35;;;;;;;3.95;3.53;;;;;;;;;;5050182;28;20554;-31
2022/05/01 11:17:02;;;;;;;3.00;2.80;;;;;;;;;;5061735;28;20487;-30
2022/05/01 11:19:32;;;;;;;3.90;3.50;;;;;;;;;;5063026;28;20406;-32
2022/05/01 11:21:58;;;;;;;4.75;3.35;;;;;;;;;;5059488;28;20383;-31
2022/05/01 11:24:43;;;;;;;4.00;3.13;;;;;;;;;;5057082;28;20048;-31
2022/05/01 11:27:16;;;;;;;3.72;2.92;;;;;;;;;;5060442;28;20036;-32
2022/05/01 11:30:01;;;;;;;4.53;3.17;;;;;;;;;;5054736;28;20571;-30
2022/05/01 11:32:42;;;;;;;5.93;3.92;;;;;;;;;;5042104;28;20041;-31
2022/05/01 11:35:11;;;;;;;4.55;3.40;;;;;;;;;;5058655;28;20051;-33
2022/05/01 11:38:06;;;;;;;5.18;3.97;;;;;;;;;;5052108;28;20168;-31
2022/05/01 11:40:32;;;;;;;3.83;3.25;;;;;;;;;;5055118;28;20037;-32
2022/05/01 11:43:14;;;;;;;4.03;3.60;;;;;;;;;;5035603;28;20041;-31
2022/05/01 11:45:40;;;;;;;4.72;3.75;;;;;;;;;;5054392;28;20043;-29
2022/05/01 11:48:14;;;;;;;4.00;3.60;;;;;;;;;;5071171;28;20470;-29
2022/05/01 11:50:40;;;;;;;4.60;3.33;;;;;;;;;;5070618;28;20129;-30
2022/05/01 11:53:16;;;;;;;3.60;3.30;;;;;;;;;;5071328;28;20064;-28
2022/05/01 12:04:40;;;;;;;4.03;3.60;;;;;;;;;;5058621;28;20469;-29
2022/05/01 12:07:17;;;;;;;5.18;3.10;;;;;;;;;;4968713;28;20054;-27
2022/05/01 12:09:46;;;;;;;4.05;3.38;;;;;;;;;;4970046;28;20528;-28
2022/05/01 12:12:16;;;;;;;3.92;3.20;;;;;;;;;;5021818;28;20446;-31
2022/05/01 12:14:43;;;;;;;3.00;2.72;;;;;;;;;;5063871;28;20122;-28
2022/05/01 12:17:10;;;;;;;3.58;3.25;;;;;;;;;;5064401;28;20036;-30
2022/05/01 12:19:37;;;;;;;3.00;2.80;;;;;;;;;;5059079;28;20086;-27
2022/05/01 12:22:04;;;;;;;3.30;3.00;;;;;;;;;;5050769;28;20486;-28
2022/05/01 12:24:30;;;;;;;4.30;3.33;;;;;;;;;;5075479;28;20036;-28
2022/05/01 12:26:57;;;;;;;5.40;3.50;;;;;;;;;;5040379;28;20047;-28
2022/05/01 12:29:23;;;;;;;4.65;3.28;;;;;;;;;;5074865;28;20036;-28
2022/05/01 12:31:59;;;;;;;7.95;3.50;;;;;;;;;;5039930;28;20494;-28
2022/05/01 12:34:26;;;;;;;4.72;4.20;;;;;;;;;;5074743;28;20088;-27
2022/05/01 12:36:53;;;;;;;3.70;3.40;;;;;;;;;;5039868;28;20048;-28
2022/05/01 12:39:24;;;;;;;3.75;3.42;;;;;;;;;;5074152;28;20075;-27
2022/05/01 12:45:08;;;;;;;4.15;3.75;;;;;;;;;;5065379;28;20048;-27
2022/05/01 12:47:39;;;;;;;3.70;3.40;;;;;;;;;;5073119;28;20048;-28
2022/05/01 12:50:27;;;;;;;4.95;3.90;;;;;;;;;;5073255;28;20126;-27
2022/05/01 12:52:55;;;;;;;4.25;3.85;;;;;;;;;;5073485;28;20049;-27
2022/05/01 12:55:22;;;;;;;4.55;3.70;;;;;;;;;;5073399;28;20394;-27
2022/05/01 12:57:52;;;;;;;6.53;3.30;;;;;;;;;;5055210;28;20040;-29
2022/05/01 13:00:34;;;;;;;4.78;3.30;;;;;;;;;;5073170;28;20047;-27
2022/05/01 13:03:15;;;;;;;3.42;3.13;;;;;;;;;;5073245;28;20127;-27
2022/05/01 13:05:43;;;;;;;5.22;3.38;;;;;;;;;;5073197;28;20121;-27
2022/05/01 13:08:19;;;;;;;4.25;3.60;;;;;;;;;;5073297;28;20040;-27
2022/05/01 13:11:05;;;;;;;3.95;3.58;;;;;;;;;;5072936;28;20141;-28
2022/05/01 13:13:41;;;;;;;4.35;3.80;;;;;;;;;;5072740;28;20412;-28
2022/05/01 13:16:07;;;;;;;3.75;3.35;;;;;;;;;;5072678;28;20040;-27
2022/05/01 13:18:33;;;;;;;4.63;3.75;;;;;;;;;;5072062;28;20036;-29
2022/05/01 13:20:59;;;;;;;3.90;3.47;;;;;;;;;;5072885;28;20391;-28
2022/05/01 13:23:25;;;;;;;6.15;4.10;;;;;;;;;;5072938;28;20087;-27
2022/05/01 13:25:51;;;;;;;5.95;3.70;;;;;;;;;;5072722;28;20050;-27
2022/05/01 13:28:17;;;;;;;4.68;3.97;;;;;;;;;;5072920;28;20036;-27
2022/05/01 13:30:43;;;;;;;6.10;3.90;;;;;;;;;;5072482;28;20119;-29
2022/05/01 13:33:09;;;;;;;4.53;4.13;;;;;;;;;;5072285;28;20455;-26
2022/05/01 13:35:36;;;;;;;4.57;4.18;;;;;;;;;;5072040;28;20036;-28
2022/05/01 13:38:02;;;;;;;6.18;4.13;;;;;;;;;;5072502;28;20111;-28
2022/05/01 13:45:59;;;;;;;4.68;3.80;;;;;;;;;;5072274;28;20144;-28
2022/05/01 13:48:25;;;;;;;6.22;3.83;;;;;;;;;;5072499;28;20110;-27
2022/05/01 13:50:51;;;;;;;4.57;4.10;;;;;;;;;;5072148;28;20044;-27
2022/05/01 13:53:17;;;;;;;4.13;3.70;;;;;;;;;;5069695;28;20036;-30
2022/05/01 13:55:43;;;;;;;4.32;3.85;;;;;;;;;;5057251;28;20040;-27
2022/05/01 13:58:10;;;;;;;5.40;3.85;;;;;;;;;;5063551;28;20048;-29
2022/05/01 14:00:37;;;;;;;4.13;3.70;;;;;;;;;;5059239;28;20514;-27
2022/05/01 14:03:10;;;;;;;5.97;4.10;;;;;;;;;;5052291;28;20070;-28
2022/05/01 14:05:37;;;;;;;6.68;4.13;;;;;;;;;;5057009;28;20043;-29
2022/05/01 14:08:03;;;;;;;4.68;4.28;;;;;;;;;;5071389;28;20115;-27
2022/05/01 14:10:31;;;;;;;7.35;4.18;;;;;;;;;;5072355;28;20102;-26
2022/05/01 14:12:57;;;;;;;5.25;4.10;;;;;;;;;;5051806;28;20044;-26
2022/05/01 14:15:23;;;;;;;5.07;3.95;;;;;;;;;;5053335;28;20029;-26
2022/05/01 14:17:51;;;;;;;4.13;3.83;;;;;;;;;;5069310;28;20035;-26
2022/05/01 14:20:17;;;;;;;4.50;4.07;;;;;;;;;;5070187;28;20474;-27
2022/05/01 14:22:44;;;;;;;6.47;4.05;;;;;;;;;;5069867;28;20037;-27
2022/05/01 14:25:14;;;;;;;5.22;4.40;;;;;;;;;;5069895;28;20048;-26
2022/05/01 14:27:41;;;;;;;4.15;3.75;;;;;;;;;;5069894;28;20041;-26
2022/05/01 14:30:08;;;;;;;5.15;3.75;;;;;;;;;;5061495;28;20171;-27
2022/05/01 14:32:40;;;;;;;4.93;4.32;;;;;;;;;;5071367;28;20051;-28
2022/05/01 14:35:08;;;;;;;4.57;4.00;;;;;;;;;;5071496;28;20528;-26
2022/05/01 14:37:47;;;;;;;4.82;4.40;;;;;;;;;;5071301;28;20036;-28
2022/05/01 14:40:14;;;;;;;5.03;4.43;;;;;;;;;;5052710;28;20033;-27
2022/05/01 14:42:42;;;;;;;4.30;3.88;;;;;;;;;;5070423;28;20053;-27
2022/05/01 14:45:12;;;;;;;4.95;4.05;;;;;;;;;;5069507;28;20037;-29
2022/05/01 14:47:46;;;;;;;5.63;3.80;;;;;;;;;;5068917;28;20036;-30
2022/05/01 14:50:16;;;;;;;5.13;3.90;;;;;;;;;;5069984;28;20040;-29
2022/05/01 14:52:43;;;;;;;4.30;3.90;;;;;;;;;;5065461;28;20407;-30
2022/05/01 14:55:10;;;;;;;5.18;4.15;;;;;;;;;;5050085;28;20527;-32
2022/05/01 14:57:36;;;;;;;4.68;4.10;;;;;;;;;;5050931;28;20045;-30
2022/05/01 15:08:24;;;;;;;4.50;4.10;;;;;;;;;;5066736;28;20041;-30
2022/05/01 15:10:50;;;;;;;4.45;4.10;;;;;;;;;;5070344;28;20120;-29
2022/05/01 15:13:17;;;;;;;4.20;3.60;;;;;;;;;;5069323;28;20090;-31
2022/05/01 15:16:01;;;;;;;4.13;3.78;;;;;;;;;;5070196;28;20082;-30
2022/05/01 15:18:51;;;;;;;4.28;3.88;;;;;;;;;;5069802;28;20036;-30
2022/05/01 15:21:19;;;;;;;7.22;3.83;;;;;;;;;;5023976;28;20071;-30